Time;durP1;ratioP1;P1;durP2;ratioP2;P2;SDS_P1;SDS_P2;PMS_P1;PMS_P2;Temp;Humidity;BMP_temperature;BMP_pressure;BME280_temperature;BME280_humidity;BME280_pressure;Samples;Min_cycle;Max_cycle;Signal;HPM_P1;HPM_P2
2021/10/10 00:01:23;;;;;;;;;;;10.00;99.90;;;;;;5056744;28;19913;-76
2021/10/10 00:03:49;;;;;;;;;;;9.90;99.90;;;;;;5047253;28;19919;-76
2021/10/10 00:06:14;;;;;;;;;;;10.00;99.90;;;;;;5035477;28;20307;-76
2021/10/10 00:08:40;;;;;;;;;;;10.00;99.90;;;;;;5049401;28;19913;-76
2021/10/10 00:11:06;;;;;;;;;;;10.00;99.90;;;;;;5051429;28;20281;-75
2021/10/10 00:13:31;;;;;;;;;;;9.90;99.90;;;;;;5051675;28;19913;-75
2021/10/10 00:15:57;;;;;;;;;;;9.80;99.90;;;;;;5036511;28;19921;-76
2021/10/10 00:18:22;;;;;;;;;;;9.80;99.90;;;;;;5035323;28;19913;-75
2021/10/10 00:20:48;;;;;;;;;;;9.80;99.90;;;;;;5052298;28;20000;-76
2021/10/10 00:23:14;;;;;;;;;;;9.70;99.90;;;;;;5051814;28;20328;-75
2021/10/10 00:25:39;;;;;;;;;;;9.70;99.90;;;;;;5036219;28;19955;-75
2021/10/10 00:28:05;;;;;;;;;;;9.70;99.90;;;;;;5050722;28;20293;-76
2021/10/10 00:30:30;;;;;;;;;;;9.70;99.90;;;;;;5055749;28;19932;-76
2021/10/10 00:32:56;;;;;;;;;;;9.60;99.90;;;;;;5052493;28;19994;-75
2021/10/10 00:35:21;;;;;;;;;;;9.60;99.90;;;;;;5034543;28;19920;-75
2021/10/10 00:37:47;;;;;;;;;;;9.60;99.90;;;;;;5035981;28;20301;-75
2021/10/10 00:40:13;;;;;;;;;;;9.60;99.90;;;;;;5034445;28;19913;-75
2021/10/10 00:42:39;;;;;;;;;;;9.60;99.90;;;;;;5035707;28;19913;-75
2021/10/10 00:45:04;;;;;;;;;;;9.60;99.90;;;;;;5035540;28;20266;-75
2021/10/10 00:47:30;;;;;;;;;;;9.60;99.90;;;;;;5034636;28;19997;-75
2021/10/10 00:49:55;;;;;;;;;;;9.60;99.90;;;;;;5034681;28;19913;-75
2021/10/10 00:52:21;;;;;;;;;;;9.60;99.90;;;;;;5035170;28;19917;-75
2021/10/10 00:54:48;;;;;;;;;;;9.60;99.90;;;;;;5046567;28;19917;-75
2021/10/10 00:57:14;;;;;;;;;;;9.50;99.90;;;;;;5055504;28;19919;-75
2021/10/10 00:59:42;;;;;;;;;;;9.50;99.90;;;;;;5055330;28;19935;-75
2021/10/10 01:02:08;;;;;;;;;;;9.50;99.90;;;;;;5055255;28;19948;-75
2021/10/10 01:04:33;;;;;;;;;;;9.50;99.90;;;;;;5038909;28;19971;-76
2021/10/10 01:07:00;;;;;;;;;;;9.50;99.90;;;;;;5035265;28;19919;-75
2021/10/10 01:09:26;;;;;;;;;;;9.40;99.90;;;;;;5034997;28;19913;-75
2021/10/10 01:11:52;;;;;;;;;;;9.40;99.90;;;;;;5033973;28;19917;-75
2021/10/10 01:14:17;;;;;;;;;;;9.40;99.90;;;;;;5033602;28;19960;-75
2021/10/10 01:16:43;;;;;;;;;;;9.40;99.90;;;;;;5033103;28;19917;-75
2021/10/10 01:19:08;;;;;;;;;;;9.40;99.90;;;;;;5034962;28;19914;-75
2021/10/10 01:21:34;;;;;;;;;;;9.40;99.90;;;;;;5040522;28;19912;-75
2021/10/10 01:24:00;;;;;;;;;;;9.30;99.90;;;;;;5035877;28;19913;-75
2021/10/10 01:26:26;;;;;;;;;;;9.40;99.90;;;;;;5035636;28;20270;-75
2021/10/10 01:28:51;;;;;;;;;;;9.30;99.90;;;;;;5043517;28;19921;-75
2021/10/10 01:31:17;;;;;;;;;;;9.30;99.90;;;;;;5048246;28;20011;-75
2021/10/10 01:33:43;;;;;;;;;;;9.30;99.90;;;;;;5051551;28;19917;-75
2021/10/10 01:36:15;;;;;;;;;;;9.30;99.90;;;;;;5035316;28;19960;-75
2021/10/10 01:38:41;;;;;;;;;;;9.20;99.90;;;;;;5034653;28;19913;-76
2021/10/10 01:41:07;;;;;;;;;;;9.20;99.90;;;;;;5038468;28;19923;-75
2021/10/10 01:43:33;;;;;;;;;;;9.20;99.90;;;;;;5043837;28;19920;-75
2021/10/10 01:45:58;;;;;;;;;;;9.20;99.90;;;;;;5035117;28;19913;-75
2021/10/10 01:48:24;;;;;;;;;;;9.10;99.90;;;;;;5033694;28;20019;-75
2021/10/10 01:50:50;;;;;;;;;;;9.10;99.90;;;;;;5037197;28;20438;-75
2021/10/10 01:53:16;;;;;;;;;;;9.10;99.90;;;;;;5042558;28;19917;-74
2021/10/10 01:55:43;;;;;;;;;;;9.10;99.90;;;;;;5033892;28;19924;-75
2021/10/10 01:58:09;;;;;;;;;;;9.10;99.90;;;;;;5050798;28;19897;-76
2021/10/10 02:00:34;;;;;;;;;;;9.10;99.90;;;;;;5059152;28;19956;-75
2021/10/10 02:03:00;;;;;;;;;;;9.10;99.90;;;;;;5065593;28;19905;-75
2021/10/10 02:05:26;;;;;;;;;;;9.10;99.90;;;;;;5060159;28;19916;-75
2021/10/10 02:07:52;;;;;;;;;;;9.10;99.90;;;;;;5058627;28;19901;-76
2021/10/10 02:10:18;;;;;;;;;;;9.00;99.90;;;;;;5058255;28;19956;-76
2021/10/10 02:12:44;;;;;;;;;;;9.00;99.90;;;;;;5073714;28;19924;-76
2021/10/10 02:15:10;;;;;;;;;;;9.00;99.90;;;;;;5076620;28;19946;-76
2021/10/10 02:17:35;;;;;;;;;;;9.00;99.90;;;;;;5076378;28;19916;-76
2021/10/10 02:20:01;;;;;;;;;;;8.90;99.90;;;;;;5069593;28;19928;-75
2021/10/10 02:22:27;;;;;;;;;;;8.90;99.90;;;;;;5039139;28;19963;-75
2021/10/10 02:24:52;;;;;;;;;;;8.90;99.90;;;;;;5036974;28;19913;-75
2021/10/10 02:27:18;;;;;;;;;;;8.90;99.90;;;;;;5042758;28;19920;-75
2021/10/10 02:29:43;;;;;;;;;;;8.90;99.90;;;;;;5042262;28;19913;-75
2021/10/10 02:32:09;;;;;;;;;;;8.90;99.90;;;;;;5053877;28;20054;-75
2021/10/10 02:34:34;;;;;;;;;;;8.90;99.90;;;;;;5039414;28;19936;-75
2021/10/10 02:37:00;;;;;;;;;;;8.90;99.90;;;;;;5033319;28;20378;-75
2021/10/10 02:39:25;;;;;;;;;;;8.90;99.90;;;;;;5045460;28;19979;-75
2021/10/10 02:41:51;;;;;;;;;;;8.80;99.90;;;;;;5051169;28;19959;-75
2021/10/10 02:44:16;;;;;;;;;;;8.80;99.90;;;;;;5039425;28;19967;-75
2021/10/10 02:46:42;;;;;;;;;;;8.80;99.90;;;;;;5033590;28;19917;-75
2021/10/10 02:49:07;;;;;;;;;;;8.70;99.90;;;;;;5033362;28;20286;-76
2021/10/10 02:51:33;;;;;;;;;;;8.70;99.90;;;;;;5046105;28;20015;-76
2021/10/10 02:53:58;;;;;;;;;;;8.70;99.90;;;;;;5043285;28;19967;-76
2021/10/10 02:56:24;;;;;;;;;;;8.70;99.90;;;;;;5032813;28;19913;-76
2021/10/10 02:58:49;;;;;;;;;;;8.70;99.90;;;;;;5033079;28;20381;-76
2021/10/10 03:01:15;;;;;;;;;;;8.60;99.90;;;;;;5044172;28;19963;-75
2021/10/10 03:03:40;;;;;;;;;;;8.60;99.90;;;;;;5045759;28;19975;-75
2021/10/10 03:06:07;;;;;;;;;;;8.60;99.90;;;;;;5046708;28;19919;-75
2021/10/10 03:08:33;;;;;;;;;;;8.60;99.90;;;;;;5051423;28;19908;-75
2021/10/10 03:10:59;;;;;;;;;;;8.50;99.90;;;;;;5031442;28;19920;-75
2021/10/10 03:13:24;;;;;;;;;;;8.50;99.90;;;;;;5032344;28;20033;-75
2021/10/10 03:15:49;;;;;;;;;;;8.50;99.90;;;;;;5037329;28;19909;-75
2021/10/10 03:18:15;;;;;;;;;;;8.60;99.90;;;;;;5037273;28;19909;-75
2021/10/10 03:20:40;;;;;;;;;;;8.60;99.90;;;;;;5042041;28;19936;-75
2021/10/10 03:23:06;;;;;;;;;;;8.50;99.90;;;;;;5055531;28;19919;-75
2021/10/10 03:25:31;;;;;;;;;;;8.50;99.90;;;;;;5055329;28;19913;-75
2021/10/10 03:27:57;;;;;;;;;;;8.50;99.90;;;;;;5043554;28;20348;-74
2021/10/10 03:30:22;;;;;;;;;;;8.50;99.90;;;;;;5036961;28;20439;-75
2021/10/10 03:32:48;;;;;;;;;;;8.50;99.90;;;;;;5036848;28;19917;-75
2021/10/10 03:35:13;;;;;;;;;;;8.50;99.90;;;;;;5035561;28;20342;-75
2021/10/10 03:37:39;;;;;;;;;;;8.50;99.90;;;;;;5036929;28;19916;-75
2021/10/10 03:40:09;;;;;;;;;;;8.50;99.90;;;;;;5036935;28;20428;-75
2021/10/10 03:42:35;;;;;;;;;;;8.40;99.90;;;;;;5035587;28;20373;-75
2021/10/10 03:45:00;;;;;;;;;;;8.40;99.90;;;;;;5036630;28;19909;-74
2021/10/10 03:47:26;;;;;;;;;;;8.40;99.90;;;;;;5036961;28;19913;-75
2021/10/10 03:49:52;;;;;;;;;;;8.30;99.90;;;;;;5035066;28;20435;-75
2021/10/10 03:52:17;;;;;;;;;;;8.30;99.90;;;;;;5036567;28;19913;-74
2021/10/10 03:57:27;;;;;;;;;;;8.20;99.90;;;;;;5036558;28;19920;-75
2021/10/10 03:59:56;;;;;;;;;;;8.20;99.90;;;;;;5039628;28;19913;-75
2021/10/10 04:02:22;;;;;;;;;;;8.20;99.90;;;;;;5053016;28;20403;-74
2021/10/10 04:04:48;;;;;;;;;;;8.20;99.90;;;;;;5055414;28;19917;-74
2021/10/10 04:07:15;;;;;;;;;;;8.20;99.90;;;;;;5046434;28;20358;-75
2021/10/10 04:09:41;;;;;;;;;;;8.10;99.90;;;;;;5037984;28;19913;-75
2021/10/10 04:12:06;;;;;;;;;;;8.20;99.90;;;;;;5034602;28;20319;-74
2021/10/10 04:14:32;;;;;;;;;;;8.10;99.90;;;;;;5034674;28;19948;-75
2021/10/10 04:16:58;;;;;;;;;;;8.10;99.90;;;;;;5049357;28;19920;-74
2021/10/10 04:19:42;;;;;;;;;;;8.10;99.90;;;;;;5041016;28;19921;-75
2021/10/10 04:22:08;;;;;;;;;;;8.10;99.90;;;;;;5050906;28;19913;-75
2021/10/10 04:24:33;;;;;;;;;;;8.10;99.90;;;;;;5040169;28;19920;-74
2021/10/10 04:27:17;;;;;;;;;;;8.10;99.90;;;;;;5037065;28;19913;-75
2021/10/10 04:29:43;;;;;;;;;;;8.00;99.90;;;;;;5041567;28;20282;-75
2021/10/10 04:32:08;;;;;;;;;;;8.00;99.90;;;;;;5034160;28;19978;-75
2021/10/10 04:34:34;;;;;;;;;;;8.00;99.90;;;;;;5035879;28;20276;-75
2021/10/10 04:36:59;;;;;;;;;;;8.00;99.90;;;;;;5035600;28;19995;-75
2021/10/10 04:39:25;;;;;;;;;;;7.90;99.90;;;;;;5034645;28;19917;-75
2021/10/10 04:41:50;;;;;;;;;;;7.90;99.90;;;;;;5035609;28;19917;-75
2021/10/10 04:44:16;;;;;;;;;;;8.00;99.90;;;;;;5035691;28;19920;-75
2021/10/10 04:46:41;;;;;;;;;;;8.00;99.90;;;;;;5034290;28;19913;-76
2021/10/10 04:49:07;;;;;;;;;;;8.00;99.90;;;;;;5036007;28;19932;-76
2021/10/10 04:51:32;;;;;;;;;;;8.00;99.90;;;;;;5055390;28;19917;-75
2021/10/10 04:53:58;;;;;;;;;;;7.90;99.90;;;;;;5054586;28;20288;-77
2021/10/10 04:56:23;;;;;;;;;;;7.90;99.90;;;;;;5038114;28;19920;-75
2021/10/10 04:58:49;;;;;;;;;;;8.00;99.90;;;;;;5037395;28;19910;-75
2021/10/10 05:01:14;;;;;;;;;;;8.00;99.90;;;;;;5053981;28;19913;-75
2021/10/10 05:03:40;;;;;;;;;;;8.00;99.90;;;;;;5053238;28;19909;-76
2021/10/10 05:06:05;;;;;;;;;;;8.00;99.90;;;;;;5055156;28;19912;-76
2021/10/10 05:08:31;;;;;;;;;;;7.90;99.90;;;;;;5054288;28;19909;-75
2021/10/10 05:10:57;;;;;;;;;;;8.00;99.90;;;;;;5038477;28;19913;-76
2021/10/10 05:13:22;;;;;;;;;;;8.00;99.90;;;;;;5049942;28;20450;-76
2021/10/10 05:15:48;;;;;;;;;;;8.00;99.90;;;;;;5056166;28;20337;-76
2021/10/10 05:18:13;;;;;;;;;;;8.00;99.90;;;;;;5054245;28;20285;-76
2021/10/10 05:20:39;;;;;;;;;;;8.00;99.90;;;;;;5056837;28;19947;-76
2021/10/10 05:23:04;;;;;;;;;;;7.90;99.90;;;;;;5048315;28;20345;-76
2021/10/10 05:25:30;;;;;;;;;;;8.00;99.90;;;;;;5038509;28;19920;-77
2021/10/10 05:27:55;;;;;;;;;;;7.90;99.90;;;;;;5051033;28;19909;-77
2021/10/10 05:30:21;;;;;;;;;;;7.90;99.90;;;;;;5042443;28;19947;-77
2021/10/10 05:32:46;;;;;;;;;;;7.90;99.90;;;;;;5052303;28;19931;-77
2021/10/10 05:35:12;;;;;;;;;;;7.90;99.90;;;;;;5040501;28;19916;-77
2021/10/10 05:37:37;;;;;;;;;;;7.90;99.90;;;;;;5037008;28;19963;-77
2021/10/10 05:40:21;;;;;;;;;;;7.90;99.90;;;;;;5039183;28;19909;-77
2021/10/10 05:42:47;;;;;;;;;;;7.90;99.90;;;;;;5034318;28;20340;-76
2021/10/10 05:45:12;;;;;;;;;;;7.90;99.90;;;;;;5039097;28;19913;-76
2021/10/10 05:47:38;;;;;;;;;;;7.90;99.90;;;;;;5048584;28;20285;-76
2021/10/10 05:50:04;;;;;;;;;;;8.00;99.90;;;;;;5040558;28;19959;-76
2021/10/10 05:52:30;;;;;;;;;;;8.00;99.90;;;;;;5033367;28;19924;-76
2021/10/10 05:54:56;;;;;;;;;;;8.10;99.90;;;;;;5034433;28;19916;-76
2021/10/10 05:57:25;;;;;;;;;;;8.00;99.90;;;;;;5039934;28;19908;-76
2021/10/10 05:59:55;;;;;;;;;;;8.10;99.90;;;;;;5049139;28;20297;-76
2021/10/10 06:02:21;;;;;;;;;;;8.10;99.90;;;;;;5045841;28;19908;-74
2021/10/10 06:04:46;;;;;;;;;;;8.10;99.90;;;;;;5053998;28;19923;-75
2021/10/10 06:07:12;;;;;;;;;;;8.10;99.90;;;;;;5053747;28;19916;-75
2021/10/10 06:09:37;;;;;;;;;;;8.20;99.90;;;;;;5052220;28;20352;-75
2021/10/10 06:12:03;;;;;;;;;;;8.20;99.90;;;;;;5053025;28;19917;-75
2021/10/10 06:14:29;;;;;;;;;;;8.20;99.90;;;;;;5036787;28;19931;-75
2021/10/10 06:16:55;;;;;;;;;;;8.30;99.90;;;;;;5052301;28;20404;-76
2021/10/10 06:19:20;;;;;;;;;;;8.30;99.90;;;;;;5052108;28;19919;-75
2021/10/10 06:21:46;;;;;;;;;;;8.40;99.90;;;;;;5053706;28;19913;-75
2021/10/10 06:24:11;;;;;;;;;;;8.40;99.90;;;;;;5053979;28;19909;-75
2021/10/10 06:26:37;;;;;;;;;;;8.50;99.90;;;;;;5053660;28;19947;-75
2021/10/10 06:29:02;;;;;;;;;;;8.60;99.90;;;;;;5035829;28;20369;-75
2021/10/10 06:31:28;;;;;;;;;;;8.60;99.90;;;;;;5053286;28;19972;-76
2021/10/10 06:33:53;;;;;;;;;;;8.60;99.90;;;;;;5047013;28;20352;-76
2021/10/10 06:36:22;;;;;;;;;;;8.60;99.90;;;;;;5031769;28;19909;-76
2021/10/10 06:38:48;;;;;;;;;;;8.70;99.90;;;;;;5033561;28;20102;-75
2021/10/10 06:41:14;;;;;;;;;;;8.80;99.90;;;;;;5032295;28;20289;-75
2021/10/10 06:43:39;;;;;;;;;;;8.90;99.90;;;;;;5033357;28;19913;-75
2021/10/10 06:46:05;;;;;;;;;;;8.90;99.90;;;;;;5034194;28;20007;-75
2021/10/10 06:48:30;;;;;;;;;;;9.00;99.90;;;;;;5041677;28;19912;-75
2021/10/10 06:50:56;;;;;;;;;;;9.00;99.90;;;;;;5052275;28;19913;-75
2021/10/10 06:53:21;;;;;;;;;;;9.00;99.90;;;;;;5037729;28;20419;-75
2021/10/10 06:55:47;;;;;;;;;;;9.10;99.90;;;;;;5042290;28;19919;-75
2021/10/10 06:58:12;;;;;;;;;;;9.20;99.90;;;;;;5037821;28;19913;-75
2021/10/10 07:00:38;;;;;;;;;;;9.20;99.90;;;;;;5042742;28;19955;-74
2021/10/10 07:03:03;;;;;;;;;;;9.30;99.90;;;;;;5032287;28;19913;-75
2021/10/10 07:05:29;;;;;;;;;;;9.30;99.90;;;;;;5043117;28;19936;-75
2021/10/10 07:07:54;;;;;;;;;;;9.40;99.90;;;;;;5051738;28;19965;-75
2021/10/10 07:10:20;;;;;;;;;;;9.40;99.90;;;;;;5052960;28;19916;-75
2021/10/10 07:12:45;;;;;;;;;;;9.50;99.90;;;;;;5050904;28;20348;-75
2021/10/10 07:15:13;;;;;;;;;;;9.70;99.90;;;;;;5047229;28;19947;-75
2021/10/10 07:17:38;;;;;;;;;;;9.80;99.90;;;;;;5042080;28;19913;-75
2021/10/10 07:20:18;;;;;;;;;;;9.80;99.90;;;;;;5039762;28;19914;-75
2021/10/10 07:22:46;;;;;;;;;;;9.80;99.90;;;;;;5031714;28;19916;-75
2021/10/10 07:25:12;;;;;;;;;;;9.80;99.90;;;;;;5044281;28;20328;-76
2021/10/10 07:27:39;;;;;;;;;;;9.90;99.90;;;;;;5031474;28;19959;-75
2021/10/10 07:30:07;;;;;;;;;;;10.10;99.90;;;;;;5031541;28;20369;-75
2021/10/10 07:32:33;;;;;;;;;;;10.10;99.90;;;;;;5031568;28;19968;-75
2021/10/10 07:34:59;;;;;;;;;;;10.20;99.90;;;;;;5041641;28;19934;-75
2021/10/10 07:37:25;;;;;;;;;;;10.20;99.90;;;;;;5038081;28;19913;-75
2021/10/10 07:39:50;;;;;;;;;;;10.20;99.90;;;;;;5032641;28;19913;-75
2021/10/10 07:42:16;;;;;;;;;;;10.30;99.90;;;;;;5032886;28;19920;-75
2021/10/10 07:44:45;;;;;;;;;;;10.40;99.90;;;;;;5037619;28;19960;-75
2021/10/10 07:47:16;;;;;;;;;;;10.50;99.90;;;;;;5032838;28;19920;-75
2021/10/10 07:49:42;;;;;;;;;;;10.60;99.90;;;;;;5033181;28;19983;-75
2021/10/10 07:52:07;;;;;;;;;;;10.70;99.90;;;;;;5032693;28;19913;-75
2021/10/10 07:54:33;;;;;;;;;;;10.90;99.90;;;;;;5042464;28;20376;-75
2021/10/10 07:56:58;;;;;;;;;;;11.00;99.90;;;;;;5051014;28;19909;-75
2021/10/10 07:59:24;;;;;;;;;;;11.10;99.90;;;;;;5049025;28;20011;-75
2021/10/10 08:01:49;;;;;;;;;;;11.20;99.90;;;;;;5045217;28;20435;-75
2021/10/10 08:04:15;;;;;;;;;;;11.30;99.90;;;;;;5045323;28;19921;-75
2021/10/10 08:06:40;;;;;;;;;;;11.40;99.90;;;;;;5046645;28;19936;-76
2021/10/10 08:09:06;;;;;;;;;;;11.60;99.90;;;;;;5055209;28;20376;-76
2021/10/10 08:11:31;;;;;;;;;;;11.70;99.90;;;;;;5055304;28;19925;-76
2021/10/10 08:13:57;;;;;;;;;;;11.70;99.90;;;;;;5045142;28;19913;-76
2021/10/10 08:16:22;;;;;;;;;;;11.80;99.90;;;;;;5037257;28;19964;-76
2021/10/10 08:18:48;;;;;;;;;;;11.80;99.90;;;;;;5043833;28;19973;-75
2021/10/10 08:21:13;;;;;;;;;;;11.90;99.90;;;;;;5057280;28;19909;-76
2021/10/10 08:23:39;;;;;;;;;;;11.90;99.90;;;;;;5051535;28;19921;-76
2021/10/10 08:26:04;;;;;;;;;;;12.00;99.90;;;;;;5058141;28;19913;-76
2021/10/10 08:28:30;;;;;;;;;;;12.00;99.90;;;;;;5057680;28;19909;-76
2021/10/10 08:30:55;;;;;;;;;;;12.10;99.90;;;;;;5056780;28;19916;-76
2021/10/10 08:33:22;;;;;;;;;;;12.10;99.90;;;;;;5045293;28;19929;-76
2021/10/10 08:35:48;;;;;;;;;;;12.10;99.90;;;;;;5036865;28;19979;-76
2021/10/10 08:38:14;;;;;;;;;;;12.30;99.90;;;;;;5036902;28;19937;-76
2021/10/10 08:40:39;;;;;;;;;;;12.40;99.90;;;;;;5041161;28;19913;-77
2021/10/10 08:43:06;;;;;;;;;;;12.50;99.90;;;;;;5055708;28;19919;-77
2021/10/10 08:45:33;;;;;;;;;;;12.70;99.90;;;;;;5063085;28;19931;-77
2021/10/10 08:47:58;;;;;;;;;;;12.80;99.90;;;;;;5053198;28;19915;-77
2021/10/10 08:50:30;;;;;;;;;;;13.00;99.90;;;;;;5056886;28;19968;-77
2021/10/10 08:52:58;;;;;;;;;;;13.10;99.90;;;;;;5061002;28;19917;-77
2021/10/10 08:55:25;;;;;;;;;;;13.20;99.90;;;;;;5051054;28;19920;-77
2021/10/10 08:57:51;;;;;;;;;;;13.20;99.90;;;;;;5040175;28;19920;-77
2021/10/10 09:00:19;;;;;;;;;;;13.40;99.90;;;;;;5059406;28;20000;-77
2021/10/10 09:02:50;;;;;;;;;;;13.60;99.90;;;;;;5051122;28;19924;-76
2021/10/10 09:05:16;;;;;;;;;;;13.60;99.90;;;;;;5054055;28;19921;-76
2021/10/10 09:07:44;;;;;;;;;;;13.60;99.90;;;;;;5053815;28;19935;-76
2021/10/10 09:10:25;;;;;;;;;;;13.60;99.90;;;;;;5037474;28;19913;-76
2021/10/10 09:12:51;;;;;;;;;;;13.50;99.90;;;;;;5043012;28;19917;-76
2021/10/10 09:15:20;;;;;;;;;;;13.40;99.90;;;;;;5042843;28;19924;-76
2021/10/10 09:18:12;;;;;;;;;;;13.40;99.90;;;;;;5056040;28;19909;-76
2021/10/10 09:20:45;;;;;;;;;;;13.30;99.90;;;;;;5034705;28;19962;-76
2021/10/10 09:23:16;;;;;;;;;;;13.30;99.90;;;;;;5036050;28;19917;-76
2021/10/10 09:25:52;;;;;;;;;;;13.40;99.90;;;;;;5038992;28;19913;-76
2021/10/10 09:28:18;;;;;;;;;;;13.60;99.90;;;;;;5046649;28;19914;-76
2021/10/10 09:30:50;;;;;;;;;;;13.90;99.90;;;;;;5051302;28;19913;-76
2021/10/10 09:33:16;;;;;;;;;;;14.00;99.90;;;;;;5050150;28;20312;-76
2021/10/10 09:35:43;;;;;;;;;;;14.10;99.90;;;;;;5034429;28;19913;-77
2021/10/10 09:38:22;;;;;;;;;;;14.10;99.90;;;;;;5035934;28;20130;-80
2021/10/10 09:41:00;;;;;;;;;;;14.10;99.90;;;;;;5053771;28;19913;-77
2021/10/10 09:43:25;;;;;;;;;;;14.20;99.90;;;;;;5043742;28;20285;-76
2021/10/10 09:45:54;;;;;;;;;;;14.20;99.90;;;;;;5033796;28;19912;-77
2021/10/10 09:48:31;;;;;;;;;;;14.20;99.90;;;;;;5038042;28;19927;-78
2021/10/10 09:50:56;;;;;;;;;;;14.10;99.90;;;;;;5044714;28;20377;-78
2021/10/10 09:53:28;;;;;;;;;;;14.20;99.90;;;;;;5034867;28;19923;-78
2021/10/10 09:55:57;;;;;;;;;;;14.40;99.90;;;;;;5052712;28;19913;-78
2021/10/10 09:58:52;;;;;;;;;;;14.50;99.90;;;;;;5047440;28;20050;-78
2021/10/10 10:01:19;;;;;;;;;;;14.70;99.90;;;;;;5020821;28;19959;-78
2021/10/10 10:03:58;;;;;;;;;;;14.90;99.90;;;;;;5035490;28;19913;-78
2021/10/10 10:06:24;;;;;;;;;;;15.00;99.90;;;;;;5034587;28;19919;-78
2021/10/10 10:08:50;;;;;;;;;;;15.20;99.90;;;;;;5047073;28;20365;-78
2021/10/10 10:11:16;;;;;;;;;;;15.30;99.90;;;;;;5042617;28;19921;-77
2021/10/10 10:13:43;;;;;;;;;;;15.50;99.90;;;;;;5036655;28;19913;-78
2021/10/10 10:16:09;;;;;;;;;;;15.60;99.90;;;;;;5041757;28;19958;-78
2021/10/10 10:18:37;;;;;;;;;;;15.70;99.90;;;;;;5040456;28;19912;-78
2021/10/10 10:21:03;;;;;;;;;;;15.90;99.90;;;;;;5035633;28;19913;-78
2021/10/10 10:23:30;;;;;;;;;;;15.90;99.90;;;;;;5040177;28;19920;-77
2021/10/10 10:25:56;;;;;;;;;;;15.90;99.90;;;;;;5030867;28;20012;-77
2021/10/10 10:28:22;;;;;;;;;;;15.90;99.90;;;;;;5041118;28;19928;-77
2021/10/10 10:30:47;;;;;;;;;;;15.90;99.90;;;;;;5037147;28;19921;-77
2021/10/10 10:33:13;;;;;;;;;;;16.10;99.90;;;;;;5035011;28;20266;-77
2021/10/10 10:35:42;;;;;;;;;;;16.20;99.90;;;;;;5031795;28;19913;-77
2021/10/10 10:38:08;;;;;;;;;;;16.30;99.90;;;;;;5043243;28;20297;-76
2021/10/10 10:40:34;;;;;;;;;;;16.40;99.90;;;;;;5032719;28;19913;-75
2021/10/10 10:43:06;;;;;;;;;;;16.50;99.90;;;;;;5032193;28;19989;-75
2021/10/10 10:45:39;;;;;;;;;;;16.40;99.90;;;;;;5045544;28;19913;-75
2021/10/10 10:48:25;;;;;;;;;;;16.50;99.90;;;;;;5031476;28;19920;-76
2021/10/10 10:50:54;;;;;;;;;;;16.50;99.90;;;;;;5019983;28;20373;-75
2021/10/10 10:53:23;;;;;;;;;;;16.10;99.90;;;;;;5032383;28;20011;-75
2021/10/10 10:55:56;;;;;;;;;;;15.90;99.90;;;;;;5048643;28;19913;-76
2021/10/10 10:58:21;;;;;;;;;;;15.90;99.90;;;;;;5039997;28;19913;-77
2021/10/10 11:00:50;;;;;;;;;;;15.80;99.90;;;;;;5048262;28;19913;-77
2021/10/10 11:03:18;;;;;;;;;;;15.80;99.90;;;;;;5029067;28;20055;-76
2021/10/10 11:05:50;;;;;;;;;;;15.90;99.90;;;;;;5024620;28;19984;-75
2021/10/10 11:08:15;;;;;;;;;;;15.80;99.90;;;;;;5006134;28;19917;-75
2021/10/10 11:11:04;;;;;;;;;;;15.80;99.90;;;;;;5007898;28;19920;-76
2021/10/10 11:13:35;;;;;;;;;;;15.80;99.90;;;;;;5023379;28;20035;-76
2021/10/10 11:16:11;;;;;;;;;;;16.00;99.90;;;;;;5023729;28;19996;-76
2021/10/10 11:18:55;;;;;;;;;;;16.20;99.90;;;;;;5009495;28;19913;-76
2021/10/10 11:21:24;;;;;;;;;;;16.20;99.90;;;;;;5006421;28;19956;-76
2021/10/10 11:23:53;;;;;;;;;;;16.10;99.90;;;;;;5018779;28;19921;-75
2021/10/10 11:26:20;;;;;;;;;;;16.20;99.90;;;;;;5011642;28;19932;-76
2021/10/10 11:28:45;;;;;;;;;;;16.00;99.90;;;;;;5008215;28;20325;-77
2021/10/10 11:31:15;;;;;;;;;;;16.00;99.90;;;;;;5028988;28;19921;-76
2021/10/10 11:33:45;;;;;;;;;;;16.00;99.90;;;;;;5025502;28;19917;-77
2021/10/10 11:36:11;;;;;;;;;;;15.90;99.90;;;;;;5049070;28;19913;-77
2021/10/10 11:38:50;;;;;;;;;;;15.80;99.90;;;;;;5048491;28;19924;-84
2021/10/10 11:41:15;;;;;;;;;;;15.80;99.90;;;;;;5044336;28;20005;-76
2021/10/10 11:43:51;;;;;;;;;;;15.80;99.90;;;;;;5046698;28;19987;-78
2021/10/10 11:46:20;;;;;;;;;;;15.80;99.90;;;;;;5041230;28;19913;-79
2021/10/10 11:48:48;;;;;;;;;;;15.80;99.90;;;;;;5041807;28;20003;-80
2021/10/10 11:51:37;;;;;;;;;;;15.80;99.90;;;;;;5036243;28;19920;-79
2021/10/10 11:54:03;;;;;;;;;;;15.70;99.90;;;;;;5037332;28;19917;-79
2021/10/10 11:56:29;;;;;;;;;;;15.60;99.90;;;;;;5037373;28;19913;-79
2021/10/10 11:59:07;;;;;;;;;;;15.70;99.90;;;;;;5035799;28;19936;-77
2021/10/10 12:01:33;;;;;;;;;;;15.70;99.90;;;;;;5041820;28;19913;-79
2021/10/10 12:03:58;;;;;;;;;;;15.70;99.90;;;;;;5037043;28;19921;-78
2021/10/10 12:06:24;;;;;;;;;;;15.80;99.90;;;;;;5052368;28;19912;-79
2021/10/10 12:09:03;;;;;;;;;;;15.90;99.90;;;;;;5056097;28;19913;-78
2021/10/10 12:11:29;;;;;;;;;;;16.00;99.90;;;;;;5047627;28;20480;-79
2021/10/10 12:13:55;;;;;;;;;;;16.10;99.90;;;;;;5047316;28;19961;-79
2021/10/10 12:16:22;;;;;;;;;;;16.30;99.90;;;;;;5036968;28;19915;-78
2021/10/10 12:18:47;;;;;;;;;;;16.40;99.90;;;;;;5035528;28;19913;-78
2021/10/10 12:21:17;;;;;;;;;;;16.70;99.90;;;;;;5034502;28;19913;-79
2021/10/10 12:23:42;;;;;;;;;;;16.90;99.90;;;;;;5051880;28;20285;-78
2021/10/10 12:26:09;;;;;;;;;;;17.10;99.90;;;;;;5041859;28;19916;-79
2021/10/10 12:28:35;;;;;;;;;;;17.20;99.90;;;;;;5055476;28;19913;-78
2021/10/10 12:31:01;;;;;;;;;;;17.40;99.90;;;;;;5054247;28;19929;-78
2021/10/10 12:33:43;;;;;;;;;;;17.50;99.90;;;;;;5050387;28;19920;-78
2021/10/10 12:36:14;;;;;;;;;;;17.30;99.90;;;;;;5041963;28;19913;-78
2021/10/10 12:38:40;;;;;;;;;;;17.20;99.90;;;;;;5049188;28;19920;-79
2021/10/10 12:41:25;;;;;;;;;;;17.10;99.90;;;;;;5054952;28;19917;-78
2021/10/10 12:43:54;;;;;;;;;;;17.00;99.90;;;;;;5048619;28;19914;-79
2021/10/10 12:46:21;;;;;;;;;;;16.80;99.90;;;;;;5047136;28;19920;-79
2021/10/10 12:48:55;;;;;;;;;;;16.60;99.90;;;;;;5056237;28;19917;-79
2021/10/10 12:51:21;;;;;;;;;;;16.40;99.90;;;;;;5056255;28;20365;-80
2021/10/10 12:53:46;;;;;;;;;;;16.20;99.90;;;;;;5055427;28;19913;-80
2021/10/10 12:56:16;;;;;;;;;;;16.20;99.90;;;;;;5050370;28;20324;-79
2021/10/10 12:58:45;;;;;;;;;;;16.30;99.90;;;;;;5054199;28;19913;-79
2021/10/10 13:01:10;;;;;;;;;;;16.20;99.90;;;;;;5052416;28;20284;-79
2021/10/10 13:03:35;;;;;;;;;;;16.20;99.90;;;;;;5045553;28;19924;-78
2021/10/10 13:06:01;;;;;;;;;;;16.20;99.90;;;;;;5055441;28;19913;-78
2021/10/10 13:08:26;;;;;;;;;;;16.20;99.90;;;;;;5056119;28;19912;-79
2021/10/10 13:10:52;;;;;;;;;;;16.40;99.90;;;;;;5043130;28;19913;-79
2021/10/10 13:13:17;;;;;;;;;;;16.50;99.90;;;;;;5050677;28;20133;-78
2021/10/10 13:15:43;;;;;;;;;;;16.70;99.90;;;;;;5063246;28;19912;-79
2021/10/10 13:18:09;;;;;;;;;;;16.70;99.90;;;;;;5066589;28;19913;-79
2021/10/10 13:20:34;;;;;;;;;;;16.90;99.90;;;;;;5063187;28;19942;-78
2021/10/10 13:23:00;;;;;;;;;;;17.00;99.90;;;;;;5047212;28;20289;-78
2021/10/10 13:25:25;;;;;;;;;;;17.00;99.90;;;;;;5063349;28;19920;-78
2021/10/10 13:27:51;;;;;;;;;;;17.00;99.90;;;;;;5048493;28;19920;-79
2021/10/10 13:30:16;;;;;;;;;;;17.10;99.90;;;;;;5047551;28;19920;-78
2021/10/10 13:32:42;;;;;;;;;;;17.20;99.90;;;;;;5049806;28;19943;-79
2021/10/10 13:35:07;;;;;;;;;;;17.20;99.90;;;;;;5049072;28;20273;-80
2021/10/10 13:37:33;;;;;;;;;;;17.20;99.90;;;;;;5069868;28;19913;-79
2021/10/10 13:39:59;;;;;;;;;;;17.00;99.90;;;;;;5069796;28;19913;-79
2021/10/10 13:42:26;;;;;;;;;;;16.90;99.90;;;;;;5077326;28;19931;-77
2021/10/10 13:44:51;;;;;;;;;;;16.60;99.90;;;;;;5061759;28;19924;-79
2021/10/10 13:47:17;;;;;;;;;;;16.50;99.90;;;;;;5062184;28;19929;-77
2021/10/10 13:49:47;;;;;;;;;;;16.60;99.90;;;;;;5058289;28;19905;-77
2021/10/10 13:52:12;;;;;;;;;;;16.60;99.90;;;;;;5058790;28;19928;-78
2021/10/10 13:54:38;;;;;;;;;;;16.60;99.90;;;;;;5058280;28;19921;-79
2021/10/10 13:57:04;;;;;;;;;;;16.60;99.90;;;;;;5064819;28;19909;-78
2021/10/10 13:59:30;;;;;;;;;;;16.60;99.90;;;;;;5057208;28;19955;-78
2021/10/10 14:01:55;;;;;;;;;;;16.50;99.90;;;;;;5066412;28;19910;-79
2021/10/10 14:04:21;;;;;;;;;;;16.40;99.90;;;;;;5057854;28;19935;-80
2021/10/10 14:06:46;;;;;;;;;;;16.40;99.90;;;;;;5057756;28;19917;-78
2021/10/10 14:09:12;;;;;;;;;;;16.40;99.90;;;;;;5042433;28;20274;-78
2021/10/10 14:11:37;;;;;;;;;;;16.60;99.90;;;;;;5038856;28;19913;-80
2021/10/10 14:14:03;;;;;;;;;;;16.80;99.90;;;;;;5044966;28;19913;-77
2021/10/10 14:16:28;;;;;;;;;;;16.90;99.90;;;;;;5037070;28;19921;-79
2021/10/10 14:18:54;;;;;;;;;;;16.90;99.90;;;;;;5037377;28;19951;-79
2021/10/10 14:21:19;;;;;;;;;;;16.80;99.90;;;;;;5043285;28;19912;-79
2021/10/10 14:23:45;;;;;;;;;;;16.80;99.90;;;;;;5055651;28;19919;-79
2021/10/10 14:26:10;;;;;;;;;;;17.00;99.90;;;;;;5049142;28;20320;-79